Terminal Aerodrome Forecast
Issued by NWS Goodland, KS

Home | Current Version | Previous Version | Text Only | Print | Product List | Glossary On
Versions: 1 2 3 4 5 6 7 8 9 10 11 12 13 14 15
816
FTUS43 KGLD 241120
TAFGLD
TAF
KGLD 241120Z 2412/2512 34016G26KT 6SM -SN OVC018
      TEMPO 2412/2415 3SM -SN OVC010
     FM241700 34018G28KT P6SM VCSH OVC010
     FM241900 36019G30KT P6SM OVC035
     FM250000 36012KT P6SM BKN040
     FM250300 VRB05KT P6SM SCT150=

USA.gov is the U.S. government's official web portal to all federal, state and local government web resources and services.